Time;durP1;ratioP1;P1;durP2;ratioP2;P2;SDS_P1;SDS_P2;PMS_P1;PMS_P2;Temp;Humidity;BMP_temperature;BMP_pressure;BME280_temperature;BME280_humidity;BME280_pressure;Samples;Min_cycle;Max_cycle;Signal;HPM_P1;HPM_P2
2022/08/02 00:01:18;;;;;;;;;;;;;;;25.46;46.46;100270.59;5418596;32;34734;-85
2022/08/02 00:04:20;;;;;;;;;;;;;;;24.73;49.79;100269.97;5410658;32;35820;-66
2022/08/02 00:07:22;;;;;;;;;;;;;;;24.42;50.72;100256.94;5404405;32;34702;-65
2022/08/02 00:10:24;;;;;;;;;;;;;;;24.91;48.59;100260.06;5423215;32;36047;-69
2022/08/02 00:13:26;;;;;;;;;;;;;;;24.28;50.01;100260.97;5404980;32;36114;-65
2022/08/02 00:16:28;;;;;;;;;;;;;;;24.00;51.56;100254.75;5419116;32;35500;-74
2022/08/02 00:19:39;;;;;;;;;;;;;;;24.49;49.99;100265.25;5389279;32;44780;-85
2022/08/02 00:22:40;;;;;;;;;;;;;;;25.31;46.80;100256.03;5413538;32;35677;-84
2022/08/02 00:25:42;;;;;;;;;;;;;;;24.65;49.10;100265.38;5413818;32;37199;-73
2022/08/02 00:28:56;;;;;;;;;;;;;;;24.38;50.04;100260.91;5402964;32;34470;-73
2022/08/02 00:31:58;;;;;;;;;;;;;;;25.16;47.90;100263.84;5421718;32;35959;-83
2022/08/02 00:35:00;;;;;;;;;;;;;;;25.73;45.47;100256.16;5404376;32;35837;-73
2022/08/02 00:38:02;;;;;;;;;;;;;;;25.24;46.50;100261.19;5420017;32;36556;-65
2022/08/02 00:41:10;;;;;;;;;;;;;;;23.91;51.55;100258.34;5404484;32;35316;-65
2022/08/02 00:44:11;;;;;;;;;;;;;;;23.82;51.47;100256.53;5401134;32;47349;-65
2022/08/02 00:47:13;;;;;;;;;;;;;;;24.33;49.49;100249.75;5422648;32;35234;-67
2022/08/02 00:50:20;;;;;;;;;;;;;;;25.38;46.29;100266.03;5394710;32;35438;-66
2022/08/02 00:53:22;;;;;;;;;;;;;;;25.26;46.68;100264.59;5413856;32;36143;-84
2022/08/02 00:56:24;;;;;;;;;;;;;;;24.60;48.71;100262.31;5408105;32;36030;-65
2022/08/02 00:59:26;;;;;;;;;;;;;;;23.43;53.03;100256.66;5406837;32;36117;-83
2022/08/02 01:02:28;;;;;;;;;;;;;;;23.91;51.27;100270.91;5408091;32;35502;-74
2022/08/02 01:05:30;;;;;;;;;;;;;;;23.59;52.66;100276.66;5409722;32;35316;-74
2022/08/02 01:08:52;;;;;;;;;;;;;;;24.67;49.54;100278.69;5420470;32;36481;-64
2022/08/02 01:11:53;;;;;;;;;;;;;;;25.14;47.72;100281.97;5409206;32;36592;-83
2022/08/02 01:14:56;;;;;;;;;;;;;;;24.09;51.10;100277.19;5407958;32;35200;-84
2022/08/02 01:18:01;;;;;;;;;;;;;;;23.61;52.60;100280.91;5392779;32;37544;-64
2022/08/02 01:21:09;;;;;;;;;;;;;;;23.55;53.23;100286.84;5413260;32;35372;-84
2022/08/02 01:24:29;;;;;;;;;;;;;;;23.62;53.50;100282.59;5420260;32;45785;-74
2022/08/02 01:27:33;;;;;;;;;;;;;;;24.00;51.80;100278.06;5389683;32;34906;-64
2022/08/02 01:30:35;;;;;;;;;;;;;;;23.65;53.03;100279.66;5421444;32;44526;-84
2022/08/02 01:33:40;;;;;;;;;;;;;;;24.23;51.63;100271.31;5406484;32;35730;-84
2022/08/02 01:36:43;;;;;;;;;;;;;;;24.54;50.30;100271.84;5404829;32;35907;-84
2022/08/02 01:39:46;;;;;;;;;;;;;;;23.54;53.33;100277.09;5419109;32;35435;-68
2022/08/02 01:42:49;;;;;;;;;;;;;;;23.16;54.10;100278.03;5388444;32;35418;-65
2022/08/02 01:45:50;;;;;;;;;;;;;;;23.00;54.66;100278.63;5407372;32;35577;-84
2022/08/02 01:48:53;;;;;;;;;;;;;;;23.59;52.14;100266.78;5394758;32;35114;-84
2022/08/02 01:55:19;;;;;;;;;;;;;;;22.78;55.17;100289.59;5394659;32;36040;-64
2022/08/02 01:58:22;;;;;;;;;;;;;;;23.04;54.83;100293.41;5405574;32;35279;-83
2022/08/02 02:01:24;;;;;;;;;;;;;;;22.92;54.71;100294.53;5420358;32;35391;-83
2022/08/02 02:04:27;;;;;;;;;;;;;;;23.47;53.14;100305.50;5388879;32;34879;-66
2022/08/02 02:07:29;;;;;;;;;;;;;;;23.31;53.61;100299.88;5420867;32;35156;-65
2022/08/02 02:10:32;;;;;;;;;;;;;;;23.32;52.84;100282.81;5392883;32;35356;-74
2022/08/02 02:13:35;;;;;;;;;;;;;;;22.59;55.64;100306.47;5405408;32;34862;-65
2022/08/02 02:16:36;;;;;;;;;;;;;;;23.55;52.83;100299.41;5390544;32;44596;-65
2022/08/02 02:19:38;;;;;;;;;;;;;;;22.54;55.29;100288.19;5387885;32;35244;-64
2022/08/02 02:22:40;;;;;;;;;;;;;;;23.67;52.47;100315.22;5403217;32;35078;-83
2022/08/02 02:25:43;;;;;;;;;;;;;;;23.65;52.41;100313.69;5386227;32;34341;-66
2022/08/02 02:28:47;;;;;;;;;;;;;;;23.85;51.99;100317.12;5405571;32;34923;-65
2022/08/02 02:31:49;;;;;;;;;;;;;;;23.80;52.16;100314.03;5404678;32;36512;-84
2022/08/02 02:34:51;;;;;;;;;;;;;;;23.19;53.36;100316.13;5399522;32;35161;-65
2022/08/02 02:37:53;;;;;;;;;;;;;;;23.18;54.18;100322.47;5403087;32;35897;-64
2022/08/02 02:40:59;;;;;;;;;;;;;;;22.69;55.47;100326.94;5389216;32;36136;-84
2022/08/02 02:44:01;;;;;;;;;;;;;;;23.26;53.97;100324.44;5404075;32;35741;-65
2022/08/02 02:47:03;;;;;;;;;;;;;;;23.86;52.00;100327.72;5404864;32;36101;-83
2022/08/02 02:50:05;;;;;;;;;;;;;;;22.71;55.05;100327.66;5410801;32;44406;-65
2022/08/02 02:53:09;;;;;;;;;;;;;;;22.37;56.23;100329.00;5392586;32;37282;-64
2022/08/02 02:56:11;;;;;;;;;;;;;;;22.17;56.58;100331.63;5402295;32;35326;-64
2022/08/02 02:59:14;;;;;;;;;;;;;;;22.62;54.73;100314.25;5396421;32;34944;-65
2022/08/02 03:02:16;;;;;;;;;;;;;;;22.89;54.43;100335.03;5408344;32;34712;-64
2022/08/02 03:05:18;;;;;;;;;;;;;;;23.12;53.48;100322.19;5404608;32;35325;-65
2022/08/02 03:08:20;;;;;;;;;;;;;;;22.83;54.80;100325.69;5391202;32;36217;-64
2022/08/02 03:11:22;;;;;;;;;;;;;;;22.36;56.66;100322.81;5424571;32;35546;-84
2022/08/02 03:14:24;;;;;;;;;;;;;;;22.23;56.97;100316.84;5393235;32;35872;-85
2022/08/02 03:17:36;;;;;;;;;;;;;;;22.56;56.15;100304.09;5418133;32;34687;-65
2022/08/02 03:20:37;;;;;;;;;;;;;;;22.44;56.53;100316.75;5417395;32;44906;-64
2022/08/02 03:23:41;;;;;;;;;;;;;;;22.51;56.75;100307.19;5403716;32;37010;-67
2022/08/02 03:26:43;;;;;;;;;;;;;;;22.38;56.89;100307.44;5426375;32;35341;-83
2022/08/02 03:29:46;;;;;;;;;;;;;;;22.20;57.78;100300.19;5411458;32;36068;-66
2022/08/02 03:32:48;;;;;;;;;;;;;;;23.34;54.15;100304.97;5420816;32;34784;-84
2022/08/02 03:35:50;;;;;;;;;;;;;;;22.64;56.09;100313.12;5408560;32;36616;-64
2022/08/02 03:38:52;;;;;;;;;;;;;;;22.42;56.77;100300.00;5408926;32;36104;-64
2022/08/02 03:41:53;;;;;;;;;;;;;;;22.65;56.28;100306.78;5417457;32;35542;-84
2022/08/02 03:44:55;;;;;;;;;;;;;;;22.41;56.38;100306.31;5391603;32;35293;-76
2022/08/02 03:47:57;;;;;;;;;;;;;;;22.39;56.65;100322.50;5419164;32;34659;-75
2022/08/02 03:50:59;;;;;;;;;;;;;;;22.21;57.50;100323.31;5393673;32;36253;-74
2022/08/02 03:54:01;;;;;;;;;;;;;;;23.10;54.28;100326.84;5417246;32;35145;-65
2022/08/02 03:57:06;;;;;;;;;;;;;;;21.86;57.62;100335.25;5409815;32;35566;-74
2022/08/02 04:00:12;;;;;;;;;;;;;;;22.66;55.54;100340.59;5410980;32;43400;-65
2022/08/02 04:03:14;;;;;;;;;;;;;;;22.37;56.32;100347.75;5422559;32;35689;-65
2022/08/02 04:06:20;;;;;;;;;;;;;;;22.88;54.65;100344.06;5406035;32;36832;-64
2022/08/02 04:09:27;;;;;;;;;;;;;;;22.07;56.83;100338.72;5423229;32;35254;-64
2022/08/02 04:12:29;;;;;;;;;;;;;;;21.99;56.85;100351.09;5407686;32;35422;-65
2022/08/02 04:15:31;;;;;;;;;;;;;;;22.11;57.06;100355.41;5408755;32;36244;-83
2022/08/02 04:18:36;;;;;;;;;;;;;;;22.68;55.52;100359.25;5407573;32;35411;-64
2022/08/02 04:21:39;;;;;;;;;;;;;;;22.75;55.43;100356.84;5392107;32;46599;-84
2022/08/02 04:24:57;;;;;;;;;;;;;;;23.01;54.50;100344.63;5424671;32;36687;-64
2022/08/02 04:28:00;;;;;;;;;;;;;;;22.66;55.98;100361.19;5386875;32;34673;-73
2022/08/02 04:31:19;;;;;;;;;;;;;;;22.55;56.21;100362.19;5407071;32;35246;-66
2022/08/02 04:34:21;;;;;;;;;;;;;;;22.49;55.84;100349.34;5406298;32;35412;-83
2022/08/02 04:37:24;;;;;;;;;;;;;;;23.37;53.42;100360.97;5405823;32;37477;-85
2022/08/02 04:40:26;;;;;;;;;;;;;;;23.33;53.11;100368.47;5421720;32;35201;-85
2022/08/02 04:43:28;;;;;;;;;;;;;;;23.89;51.98;100373.03;5406634;32;33646;-73
2022/08/02 04:46:30;;;;;;;;;;;;;;;23.94;50.77;100372.59;5427088;32;35275;-75
2022/08/02 04:49:31;;;;;;;;;;;;;;;24.37;49.42;100366.69;5406802;32;36072;-86
2022/08/02 04:52:33;;;;;;;;;;;;;;;24.77;48.35;100373.50;5399623;32;35333;-65
2022/08/02 04:55:35;;;;;;;;;;;;;;;25.21;46.93;100371.78;5407881;32;46873;-66
2022/08/02 04:58:37;;;;;;;;;;;;;;;24.75;48.33;100362.91;5408382;32;35094;-84
2022/08/02 05:01:41;;;;;;;;;;;;;;;25.86;45.33;100372.31;5424840;32;34561;-67
2022/08/02 05:04:43;;;;;;;;;;;;;;;25.48;46.41;100375.38;5404740;32;34865;-85
2022/08/02 05:07:45;;;;;;;;;;;;;;;25.31;46.72;100375.25;5420787;32;34803;-67
2022/08/02 05:10:47;;;;;;;;;;;;;;;26.54;43.51;100362.56;5407532;32;35596;-65
2022/08/02 05:13:49;;;;;;;;;;;;;;;25.99;44.55;100369.19;5421355;32;35066;-85
2022/08/02 05:17:00;;;;;;;;;;;;;;;27.07;42.54;100369.44;5399457;32;35764;-65
2022/08/02 05:20:03;;;;;;;;;;;;;;;26.82;43.04;100377.47;5395471;32;35462;-83
2022/08/02 05:23:05;;;;;;;;;;;;;;;27.12;41.93;100377.88;5416673;32;44784;-72
2022/08/02 05:26:06;;;;;;;;;;;;;;;26.89;42.71;100383.03;5404324;32;35326;-71
2022/08/02 05:29:08;;;;;;;;;;;;;;;27.30;42.18;100385.81;5420545;32;34646;-72
2022/08/02 05:32:10;;;;;;;;;;;;;;;27.34;40.79;100387.16;5377131;32;34685;-73
2022/08/02 05:35:16;;;;;;;;;;;;;;;27.46;40.87;100392.06;5414798;32;34743;-79
2022/08/02 05:38:17;;;;;;;;;;;;;;;29.48;36.36;100395.97;5408578;32;34745;-70
2022/08/02 05:41:26;;;;;;;;;;;;;;;28.31;38.33;100414.06;5387314;32;36136;-68
2022/08/02 05:44:28;;;;;;;;;;;;;;;29.35;36.46;100414.69;5414006;32;34799;-68
2022/08/02 05:47:30;;;;;;;;;;;;;;;27.98;39.03;100407.88;5384451;32;35886;-82
2022/08/02 05:50:33;;;;;;;;;;;;;;;27.74;39.39;100414.16;5406740;32;36055;-69
2022/08/02 05:53:45;;;;;;;;;;;;;;;28.29;38.15;100410.69;5380584;32;43030;-80
2022/08/02 05:57:02;;;;;;;;;;;;;;;28.53;37.73;100411.59;5386280;32;34675;-76
2022/08/02 06:00:16;;;;;;;;;;;;;;;30.47;33.71;100402.13;5402621;32;44941;-70
2022/08/02 06:03:18;;;;;;;;;;;;;;;29.30;35.66;100417.09;5394709;32;37154;-76
2022/08/02 06:06:22;;;;;;;;;;;;;;;30.52;33.74;100410.50;5416721;32;36020;-74
2022/08/02 06:09:24;;;;;;;;;;;;;;;30.74;32.85;100414.16;5402724;32;36303;-72
2022/08/02 06:12:28;;;;;;;;;;;;;;;30.37;33.15;100417.81;5390043;32;35390;-72
2022/08/02 06:15:30;;;;;;;;;;;;;;;30.53;33.44;100425.78;5393693;32;36347;-76
2022/08/02 06:18:33;;;;;;;;;;;;;;;30.33;32.92;100422.78;5381109;32;34474;-75
2022/08/02 06:21:35;;;;;;;;;;;;;;;28.84;36.03;100419.75;5398653;32;44773;-77
2022/08/02 06:24:56;;;;;;;;;;;;;;;29.16;35.19;100424.13;5381835;32;35034;-71
2022/08/02 06:27:59;;;;;;;;;;;;;;;30.39;32.56;100421.19;5413775;32;36526;-70
2022/08/02 06:31:01;;;;;;;;;;;;;;;31.95;30.12;100412.47;5392777;32;33377;-73
2022/08/02 06:34:03;;;;;;;;;;;;;;;30.16;32.60;100418.59;5389641;32;36613;-74
2022/08/02 06:37:05;;;;;;;;;;;;;;;31.54;30.46;100416.69;5405630;32;42853;-74
2022/08/02 06:40:27;;;;;;;;;;;;;;;31.72;29.83;100416.22;5402939;32;34637;-74
2022/08/02 06:43:42;;;;;;;;;;;;;;;30.40;31.30;100431.00;5414747;32;36080;-75
2022/08/02 06:46:43;;;;;;;;;;;;;;;33.50;26.85;100417.31;5401801;32;44604;-74
2022/08/02 06:50:06;;;;;;;;;;;;;;;33.74;26.40;100419.38;5395009;32;45029;-74
2022/08/02 06:53:08;;;;;;;;;;;;;;;31.37;30.39;100423.44;5385565;32;37519;-67
2022/08/02 06:56:10;;;;;;;;;;;;;;;32.15;28.98;100428.91;5399773;32;34673;-68
2022/08/02 06:59:13;;;;;;;;;;;;;;;32.34;29.14;100420.06;5400895;32;34691;-68
2022/08/02 07:02:15;;;;;;;;;;;;;;;33.45;27.31;100419.81;5396055;32;34290;-66
2022/08/02 07:05:17;;;;;;;;;;;;;;;34.51;25.57;100419.69;5411468;32;36845;-71
2022/08/02 07:08:20;;;;;;;;;;;;;;;32.99;27.46;100429.56;5389962;32;36919;-74
2022/08/02 07:11:22;;;;;;;;;;;;;;;32.94;27.71;100423.03;5402514;32;35118;-73
2022/08/02 07:14:25;;;;;;;;;;;;;;;32.02;28.51;100408.75;5412357;32;34727;-73
2022/08/02 07:17:27;;;;;;;;;;;;;;;33.66;26.25;100404.09;5403918;32;34495;-68
2022/08/02 07:20:29;;;;;;;;;;;;;;;32.61;28.09;100412.84;5415731;32;34849;-72
2022/08/02 07:23:31;;;;;;;;;;;;;;;32.54;28.35;100417.44;5402689;32;34722;-71
2022/08/02 07:26:33;;;;;;;;;;;;;;;32.45;28.71;100422.19;5415572;32;35305;-71
2022/08/02 07:29:55;;;;;;;;;;;;;;;33.10;27.94;100419.91;5419571;32;36541;-70
2022/08/02 07:32:58;;;;;;;;;;;;;;;33.57;27.17;100424.44;5403339;32;34684;-74
2022/08/02 07:36:02;;;;;;;;;;;;;;;32.87;27.71;100418.41;5399010;32;35018;-72
2022/08/02 07:39:06;;;;;;;;;;;;;;;31.96;29.20;100419.56;5373393;32;44472;-70
2022/08/02 07:42:11;;;;;;;;;;;;;;;35.26;24.66;100407.16;5412177;32;36001;-76
2022/08/02 07:45:14;;;;;;;;;;;;;;;35.50;24.43;100400.91;5404748;32;33679;-75
2022/08/02 07:48:16;;;;;;;;;;;;;;;36.39;23.05;100412.50;5401238;32;35982;-75
2022/08/02 07:51:18;;;;;;;;;;;;;;;35.86;23.59;100406.66;5383390;32;34715;-74
2022/08/02 07:54:22;;;;;;;;;;;;;;;32.48;28.67;100410.06;5395527;32;34831;-73
2022/08/02 07:57:24;;;;;;;;;;;;;;;34.64;25.76;100412.28;5396148;32;34688;-71
2022/08/02 08:00:26;;;;;;;;;;;;;;;35.21;24.88;100404.25;5402547;32;37456;-74
2022/08/02 08:03:29;;;;;;;;;;;;;;;36.33;23.36;100399.69;5395174;32;35371;-77
2022/08/02 08:06:30;;;;;;;;;;;;;;;33.87;25.74;100400.28;5404951;32;36603;-71
2022/08/02 08:09:33;;;;;;;;;;;;;;;36.41;22.90;100393.09;5387522;32;33925;-70
2022/08/02 08:12:35;;;;;;;;;;;;;;;35.83;23.58;100390.72;5410139;32;44403;-83
2022/08/02 08:15:37;;;;;;;;;;;;;;;36.31;22.91;100393.59;5384874;32;36043;-71
2022/08/02 08:18:39;;;;;;;;;;;;;;;37.76;21.02;100395.34;5412116;32;34478;-72
2022/08/02 08:21:41;;;;;;;;;;;;;;;35.98;23.32;100404.91;5397411;32;35951;-77
2022/08/02 08:24:44;;;;;;;;;;;;;;;35.14;24.53;100401.56;5403147;32;34650;-70
2022/08/02 08:27:50;;;;;;;;;;;;;;;34.10;25.99;100412.66;5399182;32;36746;-74
2022/08/02 08:30:53;;;;;;;;;;;;;;;36.46;23.05;100405.03;5397198;32;35366;-70
2022/08/02 08:33:55;;;;;;;;;;;;;;;36.58;22.39;100408.69;5413236;32;36024;-75
2022/08/02 08:36:57;;;;;;;;;;;;;;;39.36;19.17;100407.50;5402629;32;34754;-85
2022/08/02 08:39:59;;;;;;;;;;;;;;;36.00;22.67;100411.84;5419488;32;36597;-86
2022/08/02 08:43:02;;;;;;;;;;;;;;;36.15;22.44;100410.63;5379357;32;35268;-82
2022/08/02 08:46:04;;;;;;;;;;;;;;;36.56;20.99;100413.53;5406418;32;34771;-75
2022/08/02 08:49:07;;;;;;;;;;;;;;;37.96;19.47;100403.25;5410412;32;43253;-74
2022/08/02 08:52:09;;;;;;;;;;;;;;;36.52;21.03;100406.84;5370356;32;35261;-75
2022/08/02 08:55:12;;;;;;;;;;;;;;;35.31;23.03;100412.78;5402009;32;34733;-76
2022/08/02 08:58:14;;;;;;;;;;;;;;;36.03;21.78;100416.84;5400688;32;34671;-79
2022/08/02 09:01:16;;;;;;;;;;;;;;;35.92;21.40;100420.31;5402580;32;35093;-75
2022/08/02 09:04:18;;;;;;;;;;;;;;;36.78;20.51;100418.53;5402921;32;35343;-76
2022/08/02 09:07:21;;;;;;;;;;;;;;;37.13;20.05;100418.69;5408941;32;34407;-76
2022/08/02 09:10:35;;;;;;;;;;;;;;;37.27;19.72;100420.16;5395551;32;33925;-77
2022/08/02 09:13:37;;;;;;;;;;;;;;;37.33;19.53;100421.97;5402396;32;44639;-78
2022/08/02 09:16:47;;;;;;;;;;;;;;;40.29;16.72;100409.50;5402679;32;34689;-78
2022/08/02 09:19:51;;;;;;;;;;;;;;;38.27;18.62;100415.75;5402770;32;36052;-78
2022/08/02 09:23:09;;;;;;;;;;;;;;;38.14;18.94;100408.59;5399317;32;35351;-75
2022/08/02 09:26:13;;;;;;;;;;;;;;;38.01;18.93;100409.69;5405729;32;44777;-76
2022/08/02 09:29:15;;;;;;;;;;;;;;;36.58;20.48;100414.16;5403507;32;34827;-77
2022/08/02 09:32:18;;;;;;;;;;;;;;;36.74;20.21;100409.94;5415632;32;34592;-76
2022/08/02 09:35:33;;;;;;;;;;;;;;;37.22;19.57;100414.53;5388354;32;35312;-77
2022/08/02 09:38:56;;;;;;;;;;;;;;;38.35;18.30;100410.72;5393106;32;35572;-75
2022/08/02 09:42:07;;;;;;;;;;;;;;;38.92;17.79;100408.06;5405465;32;34794;-75
2022/08/02 09:45:09;;;;;;;;;;;;;;;38.91;18.10;100411.88;5383647;32;46349;-74
2022/08/02 09:48:11;;;;;;;;;;;;;;;37.21;19.64;100414.78;5410025;32;36156;-76
2022/08/02 09:51:27;;;;;;;;;;;;;;;36.90;19.93;100410.37;5390441;32;35627;-77
2022/08/02 09:54:29;;;;;;;;;;;;;;;38.97;17.86;100407.31;5415781;32;35672;-77
2022/08/02 09:57:37;;;;;;;;;;;;;;;40.37;16.36;100399.13;5399783;32;36302;-77
2022/08/02 10:00:50;;;;;;;;;;;;;;;39.46;17.07;100388.41;5387865;32;44820;-76
2022/08/02 10:03:58;;;;;;;;;;;;;;;38.24;18.46;100386.84;5416598;32;36005;-76
2022/08/02 10:07:02;;;;;;;;;;;;;;;39.01;17.65;100397.50;5405140;32;35508;-77
2022/08/02 10:10:05;;;;;;;;;;;;;;;38.22;18.62;100395.31;5414804;32;44043;-75
2022/08/02 10:13:08;;;;;;;;;;;;;;;38.52;18.05;100388.84;5402411;32;35232;-75
2022/08/02 10:16:10;;;;;;;;;;;;;;;37.63;19.17;100390.94;5407545;32;34735;-73
2022/08/02 10:19:12;;;;;;;;;;;;;;;40.05;16.67;100375.03;5396311;32;36427;-76
2022/08/02 10:22:14;;;;;;;;;;;;;;;39.70;16.93;100384.41;5399244;32;35233;-73
2022/08/02 10:25:20;;;;;;;;;;;;;;;38.00;18.33;100379.72;5405122;32;34595;-74
2022/08/02 10:28:25;;;;;;;;;;;;;;;41.11;15.32;100375.47;5400823;32;34139;-74
2022/08/02 10:31:29;;;;;;;;;;;;;;;39.52;16.66;100374.47;5416321;32;37048;-74
2022/08/02 10:34:33;;;;;;;;;;;;;;;42.10;14.56;100356.59;5387188;32;35346;-74
2022/08/02 10:37:38;;;;;;;;;;;;;;;42.67;14.10;100366.81;5387922;32;44613;-76
2022/08/02 10:40:44;;;;;;;;;;;;;;;40.50;15.81;100347.25;5404949;32;35953;-72
2022/08/02 10:43:47;;;;;;;;;;;;;;;39.61;16.69;100355.69;5389068;32;35866;-75
2022/08/02 10:46:49;;;;;;;;;;;;;;;39.36;17.03;100355.25;5414906;32;37951;-80
2022/08/02 10:50:02;;;;;;;;;;;;;;;;;;;;;
2022/08/02 11:07:53;;;;;;;;;;;;;;;37.06;19.36;100346.72;5488922;26;36326;-90
2022/08/02 11:11:08;;;;;;;;;;;;;;;38.19;18.08;100345.56;5409243;32;35228;-78
2022/08/02 11:14:09;;;;;;;;;;;;;;;39.18;17.10;100329.69;5412484;32;45692;-76
2022/08/02 11:17:15;;;;;;;;;;;;;;;40.88;15.40;100340.75;5391224;32;35645;-68
2022/08/02 11:20:18;;;;;;;;;;;;;;;38.80;17.79;100333.09;5397293;32;34634;-71
2022/08/02 11:23:32;;;;;;;;;;;;;;;38.09;18.41;100335.22;5397966;32;34841;-76
2022/08/02 11:26:46;;;;;;;;;;;;;;;36.22;20.51;100348.47;5397372;32;35654;-86
2022/08/02 11:29:48;;;;;;;;;;;;;;;37.51;18.98;100333.34;5414804;32;34984;-75
2022/08/02 11:32:54;;;;;;;;;;;;;;;35.36;21.29;100331.00;5394192;32;34620;-70
2022/08/02 11:35:59;;;;;;;;;;;;;;;37.22;19.15;100320.53;5401483;32;35388;-65
2022/08/02 11:39:08;;;;;;;;;;;;;;;39.61;17.18;100308.94;5411111;32;34232;-75
2022/08/02 11:42:10;;;;;;;;;;;;;;;39.71;16.91;100319.22;5399512;32;44733;-70
2022/08/02 11:45:13;;;;;;;;;;;;;;;38.82;17.81;100319.13;5401349;32;34725;-72
2022/08/02 11:48:29;;;;;;;;;;;;;;;40.51;15.87;100315.91;5397314;32;35974;-73
2022/08/02 11:51:33;;;;;;;;;;;;;;;40.34;16.31;100324.22;5387484;32;34969;-68
2022/08/02 11:54:36;;;;;;;;;;;;;;;37.05;19.54;100328.63;5406478;32;37945;-68
2022/08/02 11:57:38;;;;;;;;;;;;;;;38.17;18.62;100328.53;5395151;32;35848;-74
2022/08/02 12:01:00;;;;;;;;;;;;;;;40.84;16.26;100317.59;5410837;32;35617;-68
2022/08/02 12:04:03;;;;;;;;;;;;;;;42.30;14.70;100322.75;5399630;32;34761;-75
2022/08/02 12:07:05;;;;;;;;;;;;;;;39.52;17.35;100324.16;5403287;32;46637;-76
2022/08/02 12:10:10;;;;;;;;;;;;;;;38.02;18.98;100328.22;5398448;32;36024;-80
2022/08/02 12:13:19;;;;;;;;;;;;;;;37.90;19.13;100322.75;5393378;32;35971;-80
2022/08/02 12:19:42;;;;;;;;;;;;;;;42.45;14.82;100298.78;5399894;32;44594;-75
2022/08/02 12:22:44;;;;;;;;;;;;;;;42.69;14.74;100301.03;5405775;32;34971;-70
2022/08/02 12:25:58;;;;;;;;;;;;;;;43.34;14.44;100293.03;5400709;32;34659;-72
2022/08/02 12:29:00;;;;;;;;;;;;;;;40.51;17.11;100306.78;5398698;32;36137;-71
2022/08/02 12:32:02;;;;;;;;;;;;;;;40.22;17.33;100303.41;5404143;32;35210;-77
2022/08/02 12:35:05;;;;;;;;;;;;;;;38.54;19.14;100312.56;5397716;32;43116;-75
2022/08/02 12:38:10;;;;;;;;;;;;;;;34.98;23.23;100312.81;5411431;32;34667;-79
2022/08/02 12:41:12;;;;;;;;;;;;;;;34.53;23.93;100319.38;5397599;32;35386;-74
2022/08/02 12:44:33;;;;;;;;;;;;;;;34.14;24.50;100319.31;5403768;32;34626;-64
2022/08/02 12:47:44;;;;;;;;;;;;;;;34.12;24.30;100312.38;5395749;32;34802;-69
2022/08/02 12:50:46;;;;;;;;;;;;;;;33.68;25.20;100308.47;5384813;32;34757;-64
2022/08/02 12:53:48;;;;;;;;;;;;;;;34.07;24.75;100309.47;5403773;32;36520;-66
2022/08/02 12:57:10;;;;;;;;;;;;;;;34.28;24.42;100309.19;5392746;32;35002;-68
2022/08/02 13:00:12;;;;;;;;;;;;;;;33.96;24.79;100299.25;5411868;32;45444;-67
2022/08/02 13:03:15;;;;;;;;;;;;;;;33.94;25.17;100305.75;5395282;32;33900;-78
2022/08/02 13:06:36;;;;;;;;;;;;;;;33.28;25.81;100310.41;5393364;32;45616;-75
2022/08/02 13:09:46;;;;;;;;;;;;;;;33.00;26.15;100305.16;5415432;32;35439;-75
2022/08/02 13:12:49;;;;;;;;;;;;;;;33.61;25.27;100311.22;5396459;32;36848;-78
2022/08/02 13:15:51;;;;;;;;;;;;;;;33.10;25.94;100308.28;5411390;32;34943;-77
2022/08/02 13:18:53;;;;;;;;;;;;;;;33.72;24.88;100287.94;5398874;32;35437;-75
2022/08/02 13:21:55;;;;;;;;;;;;;;;32.71;26.40;100295.44;5401045;32;34893;-75
2022/08/02 13:25:05;;;;;;;;;;;;;;;33.02;26.01;100284.00;5409536;32;35860;-84
2022/08/02 13:28:07;;;;;;;;;;;;;;;32.45;27.02;100293.50;5394115;32;43273;-77
2022/08/02 13:31:09;;;;;;;;;;;;;;;33.60;25.58;100297.81;5406075;32;35183;-84
2022/08/02 13:34:31;;;;;;;;;;;;;;;32.02;27.52;100291.84;5398529;32;35625;-84
2022/08/02 13:37:33;;;;;;;;;;;;;;;31.84;27.72;100301.59;5399876;32;35334;-85
2022/08/02 13:44:06;;;;;;;;;;;;;;;33.50;25.58;100281.94;5397890;32;44606;-77
2022/08/02 13:47:11;;;;;;;;;;;;;;;32.80;26.38;100280.63;5410561;32;33282;-75
2022/08/02 13:50:14;;;;;;;;;;;;;;;32.67;26.69;100289.59;5389990;32;34970;-76
2022/08/02 13:53:16;;;;;;;;;;;;;;;32.50;26.82;100277.41;5399445;32;35934;-75
2022/08/02 13:56:18;;;;;;;;;;;;;;;32.70;26.40;100281.00;5398067;32;35798;-68
2022/08/02 13:59:36;;;;;;;;;;;;;;;32.66;26.28;100257.16;5387964;32;46783;-68
2022/08/02 14:02:58;;;;;;;;;;;;;;;33.24;25.45;100277.31;5405474;32;35537;-71
2022/08/02 14:06:00;;;;;;;;;;;;;;;33.04;25.06;100266.44;5371396;32;34212;-73
2022/08/02 14:09:02;;;;;;;;;;;;;;;33.53;24.78;100270.59;5405179;32;37921;-76
2022/08/02 14:12:04;;;;;;;;;;;;;;;33.13;24.51;100270.59;5377675;32;35471;-77
2022/08/02 14:15:07;;;;;;;;;;;;;;;33.31;24.24;100269.12;5395800;32;44439;-71
2022/08/02 14:18:09;;;;;;;;;;;;;;;33.41;23.61;100254.03;5395469;32;34848;-77
2022/08/02 14:21:10;;;;;;;;;;;;;;;33.25;23.84;100261.81;5388783;32;35306;-71
2022/08/02 14:24:13;;;;;;;;;;;;;;;32.49;24.82;100267.56;5409787;32;35627;-70
2022/08/02 14:27:15;;;;;;;;;;;;;;;32.06;25.52;100257.78;5397436;32;35276;-78
2022/08/02 14:30:17;;;;;;;;;;;;;;;31.51;26.33;100256.00;5403308;32;35923;-78
2022/08/02 14:33:19;;;;;;;;;;;;;;;31.90;25.79;100260.03;5386789;32;36485;-76
2022/08/02 14:36:21;;;;;;;;;;;;;;;33.09;24.51;100252.16;5385289;32;34813;-70
2022/08/02 14:39:28;;;;;;;;;;;;;;;32.98;23.84;100256.38;5412825;32;37115;-77
2022/08/02 14:42:50;;;;;;;;;;;;;;;33.10;23.72;100264.72;5387280;32;36936;-77
2022/08/02 14:45:52;;;;;;;;;;;;;;;33.50;22.93;100264.75;5412813;32;34974;-71
2022/08/02 14:48:54;;;;;;;;;;;;;;;32.74;23.89;100256.94;5389015;32;35060;-79
2022/08/02 14:51:57;;;;;;;;;;;;;;;32.80;23.93;100248.78;5373650;32;36195;-70
2022/08/02 14:54:59;;;;;;;;;;;;;;;33.13;23.29;100261.59;5406495;32;35396;-71
2022/08/02 14:58:01;;;;;;;;;;;;;;;32.75;23.83;100256.75;5398161;32;36021;-71
2022/08/02 15:01:03;;;;;;;;;;;;;;;33.06;23.73;100271.66;5413134;32;35212;-78
2022/08/02 15:04:05;;;;;;;;;;;;;;;32.78;23.81;100266.34;5388043;32;43334;-79
2022/08/02 15:07:07;;;;;;;;;;;;;;;32.29;24.38;100271.03;5405333;32;37344;-70
2022/08/02 15:10:09;;;;;;;;;;;;;;;32.82;23.62;100265.75;5397724;32;34769;-76
2022/08/02 15:13:11;;;;;;;;;;;;;;;32.86;23.64;100261.59;5393316;32;36066;-71
2022/08/02 15:16:13;;;;;;;;;;;;;;;32.86;23.56;100275.22;5408326;32;35897;-70
2022/08/02 15:19:15;;;;;;;;;;;;;;;32.38;24.11;100271.72;5396492;32;36400;-77
2022/08/02 15:22:17;;;;;;;;;;;;;;;32.36;24.07;100262.94;5402874;32;35759;-76
2022/08/02 15:25:21;;;;;;;;;;;;;;;33.09;23.39;100263.06;5389198;32;36048;-71
2022/08/02 15:28:23;;;;;;;;;;;;;;;32.24;23.80;100259.94;5406027;32;36318;-72
2022/08/02 15:31:25;;;;;;;;;;;;;;;32.33;23.78;100266.91;5385671;32;36517;-71
2022/08/02 15:34:34;;;;;;;;;;;;;;;32.81;23.16;100258.63;5396368;32;35014;-71
2022/08/02 15:37:36;;;;;;;;;;;;;;;33.13;22.84;100257.00;5410702;32;43940;-71
2022/08/02 15:40:42;;;;;;;;;;;;;;;33.42;22.58;100255.72;5388303;32;35453;-70
2022/08/02 15:43:44;;;;;;;;;;;;;;;33.08;22.37;100261.37;5408814;32;34377;-71
2022/08/02 15:47:04;;;;;;;;;;;;;;;32.96;22.61;100252.16;5400746;32;36235;-76
2022/08/02 15:50:06;;;;;;;;;;;;;;;32.77;22.89;100262.81;5403325;32;44937;-72
2022/08/02 15:53:11;;;;;;;;;;;;;;;33.16;22.37;100258.44;5387811;32;35102;-71
2022/08/02 15:56:13;;;;;;;;;;;;;;;32.47;22.94;100250.63;5394648;32;36043;-71
2022/08/02 15:59:17;;;;;;;;;;;;;;;33.09;22.21;100263.06;5409152;32;35544;-76
2022/08/02 16:02:20;;;;;;;;;;;;;;;32.33;22.91;100269.62;5398679;32;35701;-76
2022/08/02 16:05:22;;;;;;;;;;;;;;;32.42;22.90;100258.56;5415424;32;36136;-77
2022/08/02 16:08:24;;;;;;;;;;;;;;;32.78;22.45;100261.78;5388454;32;35966;-71
2022/08/02 16:11:26;;;;;;;;;;;;;;;32.13;23.01;100273.28;5401534;32;35488;-78
2022/08/02 16:14:28;;;;;;;;;;;;;;;32.33;23.14;100268.78;5408227;32;35797;-73